Time;durP1;ratioP1;P1;durP2;ratioP2;P2;SDS_P1;SDS_P2;PMS_P1;PMS_P2;Temp;Humidity;BMP_temperature;BMP_pressure;BME280_temperature;BME280_humidity;BME280_pressure;Samples;Min_cycle;Max_cycle;Signal;HPM_P1;HPM_P2
2023/10/19 00:01:27;;;;;;;21.38;14.25;;;;;;;11.34;100.00;98313.28;6069711;23;20026;-90
2023/10/19 00:03:58;;;;;;;21.70;13.23;;;;;;;11.35;100.00;98306.97;6070525;23;20389;-91
2023/10/19 00:06:26;;;;;;;20.50;12.20;;;;;;;11.36;100.00;98305.97;6093996;23;20025;-90
2023/10/19 00:08:52;;;;;;;16.38;11.60;;;;;;;11.36;100.00;98308.63;6093042;23;20076;-90
2023/10/19 00:11:24;;;;;;;22.92;14.23;;;;;;;11.37;100.00;98307.63;6071734;23;20021;-90
2023/10/19 00:13:53;;;;;;;25.20;14.20;;;;;;;11.36;100.00;98296.16;6118920;23;20021;-91
2023/10/19 00:16:28;;;;;;;25.23;13.95;;;;;;;11.39;100.00;98300.31;6070521;23;20108;-90
2023/10/19 00:18:59;;;;;;;25.00;13.75;;;;;;;11.37;100.00;98305.81;6095475;23;20092;-90
2023/10/19 00:21:27;;;;;;;20.70;13.45;;;;;;;11.39;100.00;98313.59;6119698;23;20025;-91
2023/10/19 00:23:57;;;;;;;22.55;13.50;;;;;;;11.39;100.00;98311.75;6069007;23;20445;-88
2023/10/19 00:26:25;;;;;;;22.30;13.73;;;;;;;11.40;100.00;98307.28;6070291;23;20109;-89
2023/10/19 00:32:00;;;;;;;24.38;13.43;;;;;;;11.39;100.00;98301.13;6097066;23;20017;-89
2023/10/19 00:34:28;;;;;;;22.20;13.52;;;;;;;11.41;100.00;98300.94;6117729;23;20073;-88
2023/10/19 00:36:56;;;;;;;25.90;14.52;;;;;;;11.42;100.00;98302.59;6116584;23;20128;-90
2023/10/19 00:39:24;;;;;;;23.17;14.52;;;;;;;11.44;100.00;98311.22;6093195;23;20018;-90
2023/10/19 00:41:55;;;;;;;23.15;14.63;;;;;;;11.43;100.00;98306.94;6133397;23;20401;-88
2023/10/19 00:44:24;;;;;;;25.63;13.23;;;;;;;11.43;100.00;98310.41;6141259;23;20030;-89
2023/10/19 00:47:03;;;;;;;24.40;14.07;;;;;;;11.44;100.00;98306.72;6141801;23;20021;-89
2023/10/19 00:49:30;;;;;;;20.83;13.57;;;;;;;11.45;100.00;98315.56;6142407;23;20021;-88
2023/10/19 00:52:11;;;;;;;21.40;12.90;;;;;;;11.45;100.00;98315.56;6070504;23;20053;-89
2023/10/19 00:54:52;;;;;;;22.02;12.27;;;;;;;11.46;100.00;98322.50;6096758;23;20088;-90
2023/10/19 00:57:35;;;;;;;18.33;12.15;;;;;;;11.45;100.00;98319.03;6095127;23;20032;-89
2023/10/19 01:00:11;;;;;;;21.05;13.75;;;;;;;11.46;100.00;98311.88;6120911;23;20040;-89
2023/10/19 01:02:44;;;;;;;22.67;13.82;;;;;;;11.47;100.00;98313.50;6094641;23;20093;-90
2023/10/19 01:05:13;;;;;;;24.00;13.15;;;;;;;11.46;100.00;98307.38;6068954;23;20046;-90
2023/10/19 01:07:40;;;;;;;22.75;13.95;;;;;;;11.47;100.00;98294.91;6070077;23;20025;-90
2023/10/19 01:10:08;;;;;;;21.75;13.75;;;;;;;11.47;100.00;98292.25;6093260;23;20018;-90
2023/10/19 01:12:39;;;;;;;23.10;14.35;;;;;;;11.47;100.00;98278.97;6117751;23;20028;-91
2023/10/19 01:15:16;;;;;;;23.50;14.27;;;;;;;11.46;100.00;98280.81;6118474;23;20096;-91
2023/10/19 01:17:45;;;;;;;21.20;12.60;;;;;;;11.48;100.00;98276.13;6105790;23;20025;-90
2023/10/19 01:20:22;;;;;;;22.65;13.10;;;;;;;11.48;100.00;98262.03;6093413;23;20029;-90
2023/10/19 01:25:40;;;;;;;25.02;14.20;;;;;;;11.48;100.00;98259.38;6094578;23;20025;-90
2023/10/19 01:28:09;;;;;;;24.95;13.93;;;;;;;11.50;100.00;98263.50;6092755;23;20057;-90
2023/10/19 01:30:37;;;;;;;22.50;13.82;;;;;;;11.50;100.00;98252.03;6093561;23;20028;-90
2023/10/19 01:33:12;;;;;;;22.05;13.68;;;;;;;11.52;100.00;98250.00;6116969;23;20048;-91
2023/10/19 01:38:30;;;;;;;20.75;12.77;;;;;;;11.51;100.00;98243.88;6120756;23;20017;-90
2023/10/19 01:41:02;;;;;;;19.40;12.43;;;;;;;11.50;100.00;98231.59;6117061;23;20327;-90
2023/10/19 01:43:32;;;;;;;22.10;12.88;;;;;;;11.52;100.00;98234.91;6068823;23;20029;-91
2023/10/19 01:46:11;;;;;;;25.08;14.55;;;;;;;11.52;100.00;98229.59;6069012;23;20104;-90
2023/10/19 01:48:43;;;;;;;22.55;14.38;;;;;;;11.52;100.00;98215.44;6092671;23;20022;-91
2023/10/19 01:51:11;;;;;;;21.52;13.63;;;;;;;11.53;100.00;98222.44;6092430;23;20029;-90
2023/10/19 01:53:44;;;;;;;25.05;14.30;;;;;;;11.54;100.00;98217.94;6141946;23;20018;-90
2023/10/19 01:56:14;;;;;;;25.65;14.93;;;;;;;11.55;100.00;98217.78;6118648;23;20671;-91
2023/10/19 01:58:43;;;;;;;22.63;13.35;;;;;;;11.55;100.00;98215.13;6093303;23;20026;-90
2023/10/19 02:03:43;;;;;;;22.75;13.60;;;;;;;11.56;100.00;98214.09;6118745;23;20121;-91
2023/10/19 02:06:18;;;;;;;22.95;14.55;;;;;;;11.55;100.00;98214.25;6071330;23;20022;-91
2023/10/19 02:08:50;;;;;;;23.10;14.77;;;;;;;11.58;100.00;98209.44;6095416;23;20013;-92
2023/10/19 02:11:21;;;;;;;25.95;14.43;;;;;;;11.58;100.00;98208.59;6118656;23;20702;-91
2023/10/19 02:13:50;;;;;;;26.50;15.57;;;;;;;11.59;100.00;98211.06;6069709;23;20049;-91
2023/10/19 02:16:25;;;;;;;23.23;14.20;;;;;;;11.57;100.00;98196.31;6094095;23;20029;-91
2023/10/19 02:18:53;;;;;;;23.52;14.27;;;;;;;11.60;100.00;98198.59;6073308;23;20096;-92
2023/10/19 02:21:23;;;;;;;24.35;14.63;;;;;;;11.58;100.00;98188.16;6095251;23;20021;-92
2023/10/19 02:23:53;;;;;;;26.33;16.15;;;;;;;11.60;100.00;98187.97;6118404;23;20026;-92
2023/10/19 02:26:22;;;;;;;25.17;15.40;;;;;;;11.60;100.00;98182.66;6095370;23;20026;-92
2023/10/19 02:28:52;;;;;;;27.00;15.45;;;;;;;11.64;100.00;98189.25;6118728;23;20033;-91
2023/10/19 02:31:23;;;;;;;25.05;14.75;;;;;;;11.58;100.00;98166.91;6119543;23;20036;-91
2023/10/19 02:33:58;;;;;;;25.13;15.13;;;;;;;11.61;100.00;98169.19;6094500;23;20468;-90
2023/10/19 02:36:30;;;;;;;25.50;15.30;;;;;;;11.60;100.00;98161.38;6118558;23;20444;-91
2023/10/19 02:39:00;;;;;;;23.00;13.80;;;;;;;11.64;100.00;98165.31;6094317;23;20357;-90
2023/10/19 02:41:28;;;;;;;25.63;15.45;;;;;;;11.63;100.00;98158.38;6093558;23;20458;-91
2023/10/19 02:44:08;;;;;;;25.65;15.73;;;;;;;11.61;100.00;98155.88;6094198;23;20097;-91
2023/10/19 02:46:41;;;;;;;25.73;15.25;;;;;;;11.62;100.00;98159.38;6093248;23;20022;-91
2023/10/19 02:49:11;;;;;;;27.73;16.38;;;;;;;11.63;100.00;98155.72;6069915;23;20021;-91
2023/10/19 02:51:39;;;;;;;31.00;16.77;;;;;;;11.63;100.00;98150.41;6093617;23;20025;-91
2023/10/19 02:54:07;;;;;;;23.98;14.88;;;;;;;11.63;100.00;98145.91;6118169;23;20656;-92
2023/10/19 02:56:35;;;;;;;26.67;15.93;;;;;;;11.61;100.00;98145.25;6119112;23;20528;-92
2023/10/19 02:59:03;;;;;;;25.08;15.40;;;;;;;11.61;100.00;98139.13;6095830;23;20022;-91
2023/10/19 03:01:33;;;;;;;25.65;16.23;;;;;;;11.62;100.00;98148.72;6118985;23;20029;-92
2023/10/19 03:04:02;;;;;;;27.88;16.10;;;;;;;11.62;100.00;98132.78;6120773;23;20112;-91
2023/10/19 03:06:32;;;;;;;26.45;16.98;;;;;;;11.61;100.00;98131.97;6096310;23;20049;-91
2023/10/19 03:09:13;;;;;;;30.20;17.98;;;;;;;11.61;100.00;98131.16;6121509;23;20017;-92
2023/10/19 03:11:40;;;;;;;28.50;17.35;;;;;;;11.61;100.00;98133.81;6073985;23;20025;-91
2023/10/19 03:14:08;;;;;;;37.78;20.33;;;;;;;11.60;100.00;98137.44;6095870;23;20446;-91
2023/10/19 03:16:36;;;;;;;34.15;19.23;;;;;;;11.61;100.00;98136.47;6096189;23;20044;-90
2023/10/19 03:19:04;;;;;;;25.30;15.73;;;;;;;11.60;100.00;98140.09;6096648;23;20028;-92
2023/10/19 03:21:41;;;;;;;37.63;20.10;;;;;;;11.62;100.00;98140.75;6096499;23;20446;-91
2023/10/19 03:24:15;;;;;;;38.38;19.35;;;;;;;11.59;100.00;98136.63;6074619;23;20031;-92
2023/10/19 03:26:48;;;;;;;31.73;17.83;;;;;;;11.58;100.00;98137.66;6072888;23;20021;-91
2023/10/19 03:29:22;;;;;;;29.00;16.77;;;;;;;11.59;100.00;98133.97;6097949;23;20021;-89
2023/10/19 03:31:49;;;;;;;28.52;18.30;;;;;;;11.60;100.00;98134.78;6072427;23;20620;-90
2023/10/19 03:34:18;;;;;;;29.65;16.80;;;;;;;11.61;100.00;98128.47;6071267;23;20025;-90
2023/10/19 03:36:45;;;;;;;31.80;18.10;;;;;;;11.60;100.00;98130.31;6121559;23;20021;-90
2023/10/19 03:39:15;;;;;;;27.40;16.10;;;;;;;11.61;100.00;98131.97;6098628;23;20021;-90
2023/10/19 03:41:44;;;;;;;29.17;16.95;;;;;;;11.61;100.00;98129.31;6074580;23;20029;-91
2023/10/19 03:46:57;;;;;;;30.67;18.05;;;;;;;11.62;100.00;98114.16;6099936;23;20068;-89
2023/10/19 03:49:30;;;;;;;31.42;17.52;;;;;;;11.64;100.00;98122.78;6099978;23;20022;-90
2023/10/19 03:54:39;;;;;;;29.48;19.20;;;;;;;11.65;100.00;98117.31;6125090;23;20097;-91
2023/10/19 03:57:19;;;;;;;30.45;17.88;;;;;;;11.59;100.00;98102.06;6096151;23;20100;-91
2023/10/19 03:59:50;;;;;;;36.60;22.55;;;;;;;11.62;100.00;98082.28;6056899;23;20722;-89
2023/10/19 04:02:20;;;;;;;32.75;20.10;;;;;;;11.65;100.00;98097.84;6093171;23;20092;-90
2023/10/19 04:04:48;;;;;;;34.35;19.73;;;;;;;11.64;100.00;98096.22;6092897;23;20029;-90
2023/10/19 04:07:21;;;;;;;32.13;18.25;;;;;;;11.63;100.00;98087.41;6117317;23;20064;-90
2023/10/19 04:09:57;;;;;;;30.83;19.25;;;;;;;11.64;100.00;98089.06;6070139;23;20032;-89
2023/10/19 04:12:25;;;;;;;31.85;19.38;;;;;;;11.66;100.00;98095.00;6118156;23;20036;-89
2023/10/19 04:14:53;;;;;;;32.17;19.75;;;;;;;11.66;100.00;98083.56;6140749;23;20025;-89
2023/10/19 04:17:21;;;;;;;30.67;18.95;;;;;;;11.65;100.00;98085.41;6141808;23;20021;-90
2023/10/19 04:19:55;;;;;;;39.28;21.85;;;;;;;11.67;100.00;98086.00;6117766;23;20025;-89
2023/10/19 04:22:23;;;;;;;44.17;23.27;;;;;;;11.68;100.00;98081.53;6118664;23;20113;-89
2023/10/19 04:24:53;;;;;;;46.72;22.48;;;;;;;11.67;100.00;98086.00;6117681;23;20021;-89
2023/10/19 04:27:23;;;;;;;49.78;23.17;;;;;;;11.67;100.00;98087.84;6092847;23;20528;-90
2023/10/19 04:29:50;;;;;;;68.28;34.45;;;;;;;11.66;100.00;98080.91;6118649;23;20483;-89
2023/10/19 04:32:25;;;;;;;45.78;25.45;;;;;;;11.66;100.00;98083.56;6093723;23;20465;-91
2023/10/19 04:34:55;;;;;;;43.05;23.65;;;;;;;11.66;100.00;98076.41;6095418;23;20056;-89
2023/10/19 04:37:23;;;;;;;33.30;22.33;;;;;;;11.67;100.00;98070.06;6067204;23;20021;-89
2023/10/19 04:39:51;;;;;;;38.95;22.80;;;;;;;11.70;100.00;98066.19;6091851;23;20351;-89
2023/10/19 04:42:19;;;;;;;36.50;21.85;;;;;;;11.69;100.00;98067.22;6092417;23;20025;-90
2023/10/19 04:44:46;;;;;;;36.53;19.50;;;;;;;11.69;100.00;98059.25;6117316;23;20025;-88
2023/10/19 04:47:13;;;;;;;33.60;18.10;;;;;;;11.70;100.00;98056.41;6117181;23;20024;-89
2023/10/19 04:49:40;;;;;;;31.20;18.60;;;;;;;11.70;100.00;98056.41;6117159;23;20025;-89
2023/10/19 04:52:06;;;;;;;32.22;18.30;;;;;;;11.73;100.00;98044.59;6118463;23;20049;-89
2023/10/19 04:54:33;;;;;;;31.65;18.17;;;;;;;11.72;100.00;98040.25;6093267;23;20032;-89
2023/10/19 04:57:00;;;;;;;33.25;18.65;;;;;;;11.73;100.00;98041.94;6117214;23;20349;-89
2023/10/19 04:59:27;;;;;;;32.60;18.38;;;;;;;11.75;100.00;98039.88;6117979;23;20044;-89
2023/10/19 05:01:55;;;;;;;30.98;17.70;;;;;;;11.74;100.00;98035.59;6092081;23;20029;-89
2023/10/19 05:04:25;;;;;;;29.92;17.15;;;;;;;11.75;100.00;98039.88;6117794;23;20029;-89
2023/10/19 05:06:53;;;;;;;34.20;19.15;;;;;;;11.76;100.00;98040.72;6117226;23;20021;-89
2023/10/19 05:09:20;;;;;;;33.78;19.02;;;;;;;11.77;100.00;98032.53;6142519;23;20022;-90
2023/10/19 05:11:48;;;;;;;47.75;24.65;;;;;;;11.77;100.00;98035.19;6141140;23;20025;-89
2023/10/19 05:14:14;;;;;;;36.92;18.90;;;;;;;11.74;100.00;98036.41;6092805;23;20032;-89
2023/10/19 05:16:42;;;;;;;50.33;22.70;;;;;;;11.76;100.00;98043.38;6069362;23;20040;-85
2023/10/19 05:19:09;;;;;;;37.67;20.02;;;;;;;11.74;100.00;98041.72;6117607;23;20028;-84
2023/10/19 05:21:36;;;;;;;43.58;21.83;;;;;;;11.74;100.00;98039.06;6117772;23;20089;-84
2023/10/19 05:24:03;;;;;;;44.95;22.52;;;;;;;11.76;100.00;98040.72;6116982;23;20385;-84
2023/10/19 05:26:33;;;;;;;41.00;20.33;;;;;;;11.76;100.00;98046.03;6093252;23;20442;-84
2023/10/19 05:29:00;;;;;;;49.15;24.58;;;;;;;11.77;100.00;98047.69;6117139;23;20102;-84
2023/10/19 05:31:28;;;;;;;47.85;20.92;;;;;;;11.76;100.00;98040.72;6116628;23;20626;-85
2023/10/19 05:33:55;;;;;;;44.67;22.15;;;;;;;11.77;100.00;98043.19;6092748;23;20025;-84
2023/10/19 05:36:22;;;;;;;51.95;23.20;;;;;;;11.79;100.00;98054.47;6117532;23;20504;-84
2023/10/19 05:38:51;;;;;;;48.15;22.25;;;;;;;11.77;100.00;98055.66;6116937;23;20100;-85
2023/10/19 05:41:21;;;;;;;38.22;18.92;;;;;;;11.77;100.00;98050.34;6092791;23;20104;-84
2023/10/19 05:43:47;;;;;;;35.30;19.08;;;;;;;11.78;100.00;98050.16;6117376;23;20032;-84
2023/10/19 05:46:18;;;;;;;40.58;20.67;;;;;;;11.78;100.00;98054.63;6117952;23;20080;-85
2023/10/19 05:48:45;;;;;;;34.97;19.88;;;;;;;11.81;100.00;98057.75;6141406;23;20029;-86
2023/10/19 05:51:14;;;;;;;31.40;17.70;;;;;;;11.79;100.00;98057.13;6140947;23;20096;-84
2023/10/19 05:53:41;;;;;;;29.90;16.58;;;;;;;11.80;100.00;98071.22;6141893;23;20029;-85
2023/10/19 05:56:08;;;;;;;29.92;14.95;;;;;;;11.80;100.00;98066.72;6117611;23;20049;-85
2023/10/19 05:58:35;;;;;;;29.73;16.08;;;;;;;11.82;100.00;98066.56;6141395;23;20460;-85
2023/10/19 06:01:05;;;;;;;29.88;16.42;;;;;;;11.81;100.00;98060.41;6094036;23;20029;-85
2023/10/19 06:03:32;;;;;;;32.33;18.20;;;;;;;11.84;100.00;98067.19;6116898;23;20453;-84
2023/10/19 06:05:59;;;;;;;27.33;14.82;;;;;;;11.84;100.00;98070.69;6117044;23;20049;-84
2023/10/19 06:08:27;;;;;;;25.27;13.88;;;;;;;11.83;100.00;98066.38;6116351;23;20017;-84
2023/10/19 06:10:54;;;;;;;30.00;16.88;;;;;;;11.84;100.00;98070.69;6116723;23;20034;-84
2023/10/19 06:13:21;;;;;;;28.80;15.70;;;;;;;11.84;100.00;98061.88;6092947;23;20049;-84
2023/10/19 06:15:48;;;;;;;30.20;15.70;;;;;;;11.85;100.00;98074.97;6142072;23;20030;-85
2023/10/19 06:18:15;;;;;;;27.60;15.07;;;;;;;11.84;100.00;98070.69;6141757;23;20053;-85
2023/10/19 06:20:44;;;;;;;25.40;15.45;;;;;;;11.83;100.00;98074.38;6116528;23;20076;-84
2023/10/19 06:23:11;;;;;;;24.35;13.82;;;;;;;11.83;100.00;98074.38;6116513;23;20045;-85
2023/10/19 06:25:38;;;;;;;24.63;13.95;;;;;;;11.83;100.00;98074.38;6140979;23;20409;-85
2023/10/19 06:28:07;;;;;;;21.38;13.30;;;;;;;11.82;100.00;98080.66;6141561;23;20043;-85
2023/10/19 06:30:33;;;;;;;20.95;13.05;;;;;;;11.82;100.00;98083.34;6141977;23;20025;-85
2023/10/19 06:33:01;;;;;;;23.10;13.35;;;;;;;11.83;100.00;98082.34;6116508;23;20022;-85
2023/10/19 06:35:31;;;;;;;23.35;14.15;;;;;;;11.84;100.00;98083.16;6092661;23;20076;-84
2023/10/19 06:37:59;;;;;;;22.15;13.45;;;;;;;11.85;100.00;98074.16;6142156;23;20025;-85
2023/10/19 06:40:26;;;;;;;29.27;16.50;;;;;;;11.85;100.00;98071.50;6143155;23;20097;-85
2023/10/19 06:42:58;;;;;;;35.88;18.30;;;;;;;11.84;100.00;98072.53;6118978;23;20026;-85
2023/10/19 06:45:25;;;;;;;37.95;18.38;;;;;;;11.84;100.00;98072.53;6117044;23;20049;-85
2023/10/19 06:47:52;;;;;;;33.70;17.75;;;;;;;11.85;100.00;98066.19;6093234;23;20080;-84
2023/10/19 06:50:20;;;;;;;36.25;17.77;;;;;;;11.85;100.00;98072.31;6095325;23;20018;-85
2023/10/19 06:52:50;;;;;;;30.02;16.60;;;;;;;11.86;100.00;98060.72;6095318;23;20017;-84
2023/10/19 06:55:21;;;;;;;32.65;18.38;;;;;;;11.86;100.00;98063.38;6119147;23;20017;-85
2023/10/19 06:57:53;;;;;;;39.85;18.17;;;;;;;11.85;100.00;98056.34;6118606;23;20017;-85
2023/10/19 07:00:22;;;;;;;32.92;18.80;;;;;;;11.87;100.00;98053.56;6119387;23;20084;-85
2023/10/19 07:02:53;;;;;;;34.33;18.02;;;;;;;11.86;100.00;98058.06;6069567;23;20013;-85
2023/10/19 07:05:29;;;;;;;32.25;17.30;;;;;;;11.88;100.00;98055.19;6119574;23;20033;-85
2023/10/19 07:07:59;;;;;;;33.97;19.23;;;;;;;11.90;100.00;98063.81;6094255;23;20044;-85
2023/10/19 07:10:27;;;;;;;32.28;17.88;;;;;;;11.91;100.00;98055.66;6119097;23;20458;-85
2023/10/19 07:12:55;;;;;;;33.15;19.48;;;;;;;11.94;100.00;98052.63;6143846;23;20496;-85
2023/10/19 07:15:23;;;;;;;29.92;16.95;;;;;;;11.93;100.00;98045.66;6094132;23;20406;-85
2023/10/19 07:17:54;;;;;;;32.10;17.05;;;;;;;11.98;100.00;98062.88;6069841;23;20014;-85
2023/10/19 07:20:25;;;;;;;29.70;17.60;;;;;;;12.01;100.00;98065.16;6094354;23;20025;-84
2023/10/19 07:22:56;;;;;;;32.53;17.60;;;;;;;12.01;100.00;98055.34;6094938;23;20020;-85
2023/10/19 07:25:25;;;;;;;31.10;17.73;;;;;;;12.04;100.00;98057.63;6093585;23;20480;-85
2023/10/19 07:27:52;;;;;;;30.58;17.50;;;;;;;12.05;100.00;98051.28;6117984;23;20477;-85
2023/10/19 07:30:26;;;;;;;34.78;16.48;;;;;;;12.07;100.00;98051.94;6117837;23;20017;-84
2023/10/19 07:32:54;;;;;;;31.10;17.80;;;;;;;12.08;100.00;98055.41;6119554;23;20033;-85
2023/10/19 07:35:28;;;;;;;30.92;17.50;;;;;;;12.08;100.00;98052.75;6117833;23;20461;-85
2023/10/19 07:37:56;;;;;;;30.58;16.35;;;;;;;12.09;100.00;98051.75;6094748;23;20105;-84
2023/10/19 07:40:24;;;;;;;30.52;17.27;;;;;;;12.10;100.00;98053.38;6092857;23;20032;-85
2023/10/19 07:42:53;;;;;;;28.52;14.82;;;;;;;12.11;100.00;98063.00;6070165;23;20410;-85
2023/10/19 07:45:21;;;;;;;27.85;15.88;;;;;;;12.12;100.00;98054.84;6046345;23;20021;-85
2023/10/19 07:47:48;;;;;;;31.60;16.88;;;;;;;12.12;100.00;98054.84;6068541;23;20481;-85
2023/10/19 07:50:16;;;;;;;29.08;14.88;;;;;;;12.13;100.00;98051.16;6117894;23;20033;-85
2023/10/19 07:52:48;;;;;;;33.63;17.25;;;;;;;12.16;100.00;98058.78;6143450;23;20044;-84
2023/10/19 07:55:15;;;;;;;32.35;16.80;;;;;;;12.15;100.00;98043.00;6094095;23;20017;-85
2023/10/19 07:57:43;;;;;;;31.88;16.45;;;;;;;12.18;100.00;98052.44;6117725;23;20028;-86
2023/10/19 08:00:13;;;;;;;29.42;15.15;;;;;;;12.19;100.00;98056.75;6117465;23;20025;-84
2023/10/19 08:02:45;;;;;;;30.70;15.93;;;;;;;12.20;100.00;98040.59;6093586;23;20045;-85
2023/10/19 08:05:18;;;;;;;31.70;17.65;;;;;;;12.22;100.00;98041.22;6118062;23;20537;-85
2023/10/19 08:07:46;;;;;;;32.90;17.48;;;;;;;12.26;100.00;98039.00;6117825;23;20017;-85
2023/10/19 08:10:16;;;;;;;31.75;16.92;;;;;;;12.29;100.00;98034.13;6118352;23;20021;-85
2023/10/19 08:12:44;;;;;;;36.60;18.23;;;;;;;12.34;100.00;98034.38;6069458;23;20021;-84
2023/10/19 08:15:15;;;;;;;33.17;18.75;;;;;;;12.35;100.00;98033.38;6092903;23;20353;-85
2023/10/19 08:17:44;;;;;;;33.70;18.58;;;;;;;12.39;100.00;98036.47;6092714;23;20029;-84
2023/10/19 08:20:27;;;;;;;32.25;17.10;;;;;;;12.41;100.00;98026.44;6070084;23;20029;-85
2023/10/19 08:22:56;;;;;;;28.58;16.85;;;;;;;12.43;100.00;98026.25;6117487;23;20021;-84
2023/10/19 08:25:27;;;;;;;31.95;16.42;;;;;;;12.47;100.00;98023.03;6093020;23;20327;-84
2023/10/19 08:28:02;;;;;;;36.03;19.40;;;;;;;12.52;100.00;98025.13;6118281;23;20037;-84
2023/10/19 08:30:29;;;;;;;30.55;17.23;;;;;;;12.53;100.00;98026.75;6069354;23;20021;-85
2023/10/19 08:32:57;;;;;;;33.00;17.83;;;;;;;12.57;100.00;98030.69;6118100;23;20066;-84
2023/10/19 08:35:24;;;;;;;34.38;19.05;;;;;;;12.60;100.00;98019.66;6118576;23;20025;-85
2023/10/19 08:37:53;;;;;;;36.78;20.85;;;;;;;12.64;100.00;98023.56;6092256;23;20029;-85
2023/10/19 08:40:21;;;;;;;32.10;18.95;;;;;;;12.66;100.00;98026.84;6094350;23;20025;-84
2023/10/19 08:42:48;;;;;;;29.45;16.80;;;;;;;12.68;100.00;98019.50;6141715;23;20093;-86
2023/10/19 08:45:18;;;;;;;36.95;19.73;;;;;;;12.70;100.00;98019.31;6117332;23;20658;-84
2023/10/19 08:48:00;;;;;;;35.55;18.60;;;;;;;12.69;100.00;98021.13;6069386;23;20041;-84
2023/10/19 08:50:29;;;;;;;30.20;16.73;;;;;;;12.74;100.00;98018.72;6117317;23;20035;-85
2023/10/19 08:52:58;;;;;;;35.40;19.83;;;;;;;12.78;100.00;98013.84;6117800;23;20452;-84
2023/10/19 08:55:25;;;;;;;36.42;20.67;;;;;;;12.80;100.00;98020.63;6069756;23;20060;-85
2023/10/19 08:58:11;;;;;;;39.33;20.88;;;;;;;12.82;100.00;98023.91;6140975;23;20025;-84
2023/10/19 09:00:54;;;;;;;36.53;19.77;;;;;;;12.82;100.00;98009.75;6093896;23;20514;-84
2023/10/19 09:03:24;;;;;;;35.95;20.20;;;;;;;12.88;100.00;98008.19;6093748;23;20018;-84
2023/10/19 09:05:51;;;;;;;32.05;17.60;;;;;;;12.88;100.00;97997.53;6093446;23;20600;-85
2023/10/19 09:08:19;;;;;;;34.92;18.65;;;;;;;12.91;100.00;97995.28;6116515;23;20056;-85
2023/10/19 09:10:49;;;;;;;32.05;16.83;;;;;;;12.94;100.00;98005.53;6118049;23;20084;-84
2023/10/19 09:13:18;;;;;;;31.35;17.40;;;;;;;12.95;100.00;98001.88;6116646;23;20032;-84
2023/10/19 09:15:45;;;;;;;33.25;18.88;;;;;;;12.96;100.00;97992.03;6117732;23;20541;-84
2023/10/19 09:18:17;;;;;;;31.85;16.88;;;;;;;12.98;100.00;97993.47;6117259;23;20052;-84
2023/10/19 09:23:31;;;;;;;34.42;18.90;;;;;;;13.04;100.00;97987.34;6120350;23;20017;-84
2023/10/19 09:26:09;;;;;;;32.90;17.23;;;;;;;13.09;100.00;97994.75;6116905;23;20017;-85
2023/10/19 09:28:37;;;;;;;44.40;22.95;;;;;;;13.12;100.00;97988.22;6091674;23;20021;-84
2023/10/19 09:31:05;;;;;;;32.60;16.55;;;;;;;13.13;100.00;97990.69;6092955;23;20466;-84
2023/10/19 09:33:33;;;;;;;28.45;15.95;;;;;;;13.17;100.00;97980.44;6116802;23;20029;-84
2023/10/19 09:36:05;;;;;;;26.52;15.98;;;;;;;13.17;100.00;97986.59;6116599;23;20105;-84
2023/10/19 09:38:32;;;;;;;25.88;15.30;;;;;;;13.20;100.00;97983.56;6118413;23;20025;-84
2023/10/19 09:41:00;;;;;;;26.02;14.45;;;;;;;13.23;100.00;97977.81;6122421;23;20033;-84
2023/10/19 09:43:34;;;;;;;23.83;13.93;;;;;;;13.23;100.00;97975.16;6117393;23;20364;-84
2023/10/19 09:46:08;;;;;;;25.40;14.88;;;;;;;13.29;100.00;97967.41;6143184;23;20025;-83
2023/10/19 09:48:42;;;;;;;25.23;14.75;;;;;;;13.31;100.00;97965.38;6117544;23;20088;-84
2023/10/19 09:51:10;;;;;;;20.65;12.52;;;;;;;13.36;100.00;97957.63;6092207;23;20379;-83
2023/10/19 09:53:45;;;;;;;23.23;12.85;;;;;;;13.38;100.00;97959.06;6117878;23;20028;-83
2023/10/19 09:56:21;;;;;;;23.90;13.20;;;;;;;13.38;100.00;97955.53;6141237;23;20032;-84
2023/10/19 09:58:51;;;;;;;30.77;15.48;;;;;;;13.42;100.00;97962.94;6117008;23;20025;-83
2023/10/19 10:01:21;;;;;;;23.42;13.48;;;;;;;13.44;100.00;97963.59;6142144;23;21014;-83
2023/10/19 10:03:49;;;;;;;22.80;13.23;;;;;;;13.45;100.00;97959.88;6117184;23;20033;-83
2023/10/19 10:06:20;;;;;;;27.02;15.43;;;;;;;13.48;100.00;97958.66;6118110;23;20025;-84
2023/10/19 10:08:48;;;;;;;29.08;16.20;;;;;;;13.50;100.00;97956.63;6142188;23;20028;-83
2023/10/19 10:11:21;;;;;;;26.88;14.10;;;;;;;13.51;100.00;97955.63;6141021;23;20048;-83
2023/10/19 10:13:51;;;;;;;26.33;16.10;;;;;;;13.53;100.00;97961.53;6116862;23;20029;-83
2023/10/19 10:16:21;;;;;;;28.17;14.82;;;;;;;13.55;100.00;97948.84;6117203;23;20651;-83
2023/10/19 10:18:50;;;;;;;28.77;15.50;;;;;;;13.60;100.00;97946.38;6140479;23;20074;-83
2023/10/19 10:21:21;;;;;;;23.05;13.63;;;;;;;13.61;100.00;97941.88;6093077;23;20045;-83
2023/10/19 10:23:49;;;;;;;27.55;15.88;;;;;;;13.64;100.00;97941.50;6141098;23;20017;-83
2023/10/19 10:26:17;;;;;;;26.75;15.75;;;;;;;13.67;100.00;97939.22;6116183;23;20030;-83
2023/10/19 10:28:49;;;;;;;24.35;14.70;;;;;;;13.72;100.00;97929.81;6116242;23;20382;-83
2023/10/19 10:31:24;;;;;;;25.83;14.50;;;;;;;13.75;100.00;97935.56;6141857;23;20479;-83
2023/10/19 10:33:54;;;;;;;21.17;12.18;;;;;;;13.77;100.00;97936.19;6140782;23;20033;-84
2023/10/19 10:36:21;;;;;;;22.55;13.38;;;;;;;13.78;100.00;97931.66;6140502;23;20086;-83
2023/10/19 10:38:49;;;;;;;23.42;13.43;;;;;;;13.81;100.00;97934.72;6115819;23;20022;-83
2023/10/19 10:41:27;;;;;;;25.27;13.00;;;;;;;13.81;100.00;97929.41;6091788;23;20026;-83
2023/10/19 10:43:56;;;;;;;25.90;13.63;;;;;;;13.86;100.00;97937.59;6142344;23;20025;-83
2023/10/19 10:46:27;;;;;;;24.35;14.25;;;;;;;13.88;100.00;97940.09;6141355;23;20453;-83
2023/10/19 10:48:54;;;;;;;24.25;12.75;;;;;;;13.87;100.00;97939.28;6141188;23;20104;-83
2023/10/19 10:51:23;;;;;;;24.98;14.77;;;;;;;13.89;100.00;97939.91;6140887;23;20117;-83
2023/10/19 10:53:53;;;;;;;28.48;15.77;;;;;;;13.90;100.00;97935.38;6093542;23;20031;-84
2023/10/19 10:56:22;;;;;;;27.50;16.30;;;;;;;13.92;100.00;97924.47;6118237;23;20049;-84
2023/10/19 10:58:50;;;;;;;28.05;16.55;;;;;;;13.93;100.00;97936.81;6140772;23;20029;-84
2023/10/19 11:01:30;;;;;;;26.85;14.02;;;;;;;13.89;100.00;97928.38;6141990;23;20021;-84
2023/10/19 11:04:11;;;;;;;25.95;13.35;;;;;;;13.89;100.00;97917.72;6140783;23;20026;-83
2023/10/19 11:06:55;;;;;;;21.90;14.40;;;;;;;13.91;100.00;97926.34;6143446;23;20013;-84
2023/10/19 11:09:22;;;;;;;23.63;13.95;;;;;;;13.98;100.00;97924.50;6117526;23;20874;-83
2023/10/19 11:11:49;;;;;;;25.48;15.38;;;;;;;14.01;100.00;97924.09;6141468;23;20587;-83
2023/10/19 11:14:16;;;;;;;23.48;14.18;;;;;;;14.04;100.00;97921.03;6142806;23;20178;-83
2023/10/19 11:16:43;;;;;;;22.42;14.35;;;;;;;14.05;100.00;97922.66;6118765;23;20057;-84
2023/10/19 11:19:10;;;;;;;25.05;15.10;;;;;;;14.07;100.00;97917.94;6119098;23;20022;-83
2023/10/19 11:21:37;;;;;;;25.05;14.10;;;;;;;14.09;100.00;97915.91;6142185;23;20045;-84
2023/10/19 11:24:04;;;;;;;20.83;13.77;;;;;;;14.10;100.00;97920.19;6120252;23;20033;-84
2023/10/19 11:26:39;;;;;;;23.38;13.82;;;;;;;14.10;100.00;97914.03;6120867;23;20025;-83
2023/10/19 11:29:09;;;;;;;21.92;13.07;;;;;;;14.11;100.00;97916.50;6095072;23;20014;-84
2023/10/19 11:31:40;;;;;;;25.13;14.32;;;;;;;14.12;100.00;97906.66;6095271;23;20037;-84
2023/10/19 11:34:08;;;;;;;26.65;13.63;;;;;;;14.13;100.00;97918.97;6118005;23;20056;-83
2023/10/19 11:36:35;;;;;;;26.77;14.52;;;;;;;14.13;100.00;97910.13;6070494;23;20041;-84
2023/10/19 11:39:04;;;;;;;24.45;13.65;;;;;;;14.13;100.00;97915.47;6142710;23;20021;-83
2023/10/19 11:41:31;;;;;;;24.55;13.20;;;;;;;14.12;100.00;97909.31;6118032;23;20525;-84